Time;durP1;ratioP1;P1;durP2;ratioP2;P2;SDS_P1;SDS_P2;PMS_P1;PMS_P2;Temp;Humidity;BMP_temperature;BMP_pressure;BME280_temperature;BME280_humidity;BME280_pressure;Samples;Min_cycle;Max_cycle;Signal;HPM_P1;HPM_P2
2023/03/15 00:01:26;;;;;;;9.23;5.70;;;;;;;21.31;51.65;99847.34;5055138;28;20048;-53
2023/03/15 00:03:54;;;;;;;9.88;5.85;;;;;;;21.30;51.69;99850.19;5055208;28;20060;-53
2023/03/15 00:06:21;;;;;;;6.05;4.70;;;;;;;21.30;51.59;99856.41;5055012;28;20048;-54
2023/03/15 00:08:50;;;;;;;6.20;4.82;;;;;;;21.30;51.54;99852.88;5054809;28;20048;-54
2023/03/15 00:11:18;;;;;;;7.35;5.20;;;;;;;21.29;51.43;99852.06;5054894;28;20044;-53
2023/03/15 00:13:46;;;;;;;5.72;4.35;;;;;;;21.28;51.46;99855.75;5054889;28;20052;-50
2023/03/15 00:16:16;;;;;;;8.13;5.10;;;;;;;21.29;51.40;99853.91;5054782;28;20494;-54
2023/03/15 00:18:45;;;;;;;6.68;4.68;;;;;;;21.28;51.44;99852.22;5054775;28;20044;-51
2023/03/15 00:21:14;;;;;;;5.80;4.35;;;;;;;21.28;51.34;99857.63;5054660;28;20045;-53
2023/03/15 00:23:41;;;;;;;8.60;4.97;;;;;;;21.27;51.31;99861.28;5054469;28;20446;-54
2023/03/15 00:26:12;;;;;;;7.13;4.50;;;;;;;21.27;51.35;99869.38;5054556;28;20442;-54
2023/03/15 00:28:40;;;;;;;6.70;4.90;;;;;;;21.27;51.26;99869.38;5054579;28;20505;-53
2023/03/15 00:31:22;;;;;;;6.82;4.50;;;;;;;21.27;51.34;99877.44;5053551;28;20387;-53
2023/03/15 00:33:54;;;;;;;6.53;4.32;;;;;;;21.25;51.25;99874.94;5053301;28;20056;-55
2023/03/15 00:36:23;;;;;;;5.60;4.35;;;;;;;21.24;51.26;99876.78;5054253;28;20423;-52
2023/03/15 00:38:52;;;;;;;6.88;4.53;;;;;;;21.24;51.09;99882.16;5054196;28;20056;-55
2023/03/15 00:41:21;;;;;;;5.75;4.22;;;;;;;21.23;51.13;99880.50;5054322;28;20048;-55
2023/03/15 00:43:49;;;;;;;6.15;4.10;;;;;;;21.24;51.15;99894.78;5054218;28;20055;-53
2023/03/15 00:46:17;;;;;;;5.57;4.45;;;;;;;21.22;51.08;99894.94;5053924;28;20049;-53
2023/03/15 00:48:49;;;;;;;7.95;4.38;;;;;;;21.22;51.06;99897.63;5054044;28;20100;-55
2023/03/15 00:51:22;;;;;;;7.00;4.18;;;;;;;21.21;51.10;99895.97;5054148;28;20387;-53
2023/03/15 00:53:51;;;;;;;6.35;4.65;;;;;;;21.21;50.98;99911.28;5054178;28;20041;-53
2023/03/15 00:56:21;;;;;;;5.80;4.03;;;;;;;21.20;50.83;99910.44;5054003;28;20037;-55
2023/03/15 00:58:51;;;;;;;7.55;4.22;;;;;;;21.20;51.02;99918.50;5053070;28;20045;-53
2023/03/15 01:01:25;;;;;;;9.02;4.18;;;;;;;21.20;50.98;99928.44;5052597;28;20049;-54
2023/03/15 01:03:53;;;;;;;7.72;4.68;;;;;;;21.20;51.15;99942.72;5054083;28;20049;-53
2023/03/15 01:06:28;;;;;;;5.05;3.90;;;;;;;21.19;50.97;99943.75;5052593;28;20491;-50
2023/03/15 01:08:57;;;;;;;5.47;4.18;;;;;;;21.19;50.92;99951.00;5051518;28;20401;-54
2023/03/15 01:11:26;;;;;;;5.47;4.38;;;;;;;21.20;51.02;99960.75;5052622;28;20060;-48
2023/03/15 01:13:56;;;;;;;6.95;3.90;;;;;;;21.18;51.02;99951.97;5053724;28;20056;-52
2023/03/15 01:16:23;;;;;;;6.55;4.68;;;;;;;21.17;50.92;99953.81;5053770;28;20049;-54
2023/03/15 01:18:51;;;;;;;5.15;4.28;;;;;;;21.17;51.12;99955.69;5053690;28;20041;-55
2023/03/15 01:21:20;;;;;;;7.75;4.15;;;;;;;21.17;51.04;99956.50;5053273;28;20053;-54
2023/03/15 01:23:48;;;;;;;5.70;4.63;;;;;;;21.16;51.04;99962.91;5052502;28;20049;-53
2023/03/15 01:26:16;;;;;;;5.78;3.72;;;;;;;21.16;51.01;99962.91;5052734;28;20395;-50
2023/03/15 01:28:44;;;;;;;7.72;4.07;;;;;;;21.15;51.14;99972.00;5052478;28;20057;-50
2023/03/15 01:31:21;;;;;;;5.10;4.05;;;;;;;21.16;51.10;99978.22;5052807;28;20045;-49
2023/03/15 01:33:49;;;;;;;8.25;4.15;;;;;;;21.15;51.13;99979.25;5052259;28;20064;-50
2023/03/15 01:36:17;;;;;;;5.53;4.20;;;;;;;21.14;51.15;99983.75;5052466;28;20056;-50
2023/03/15 01:38:45;;;;;;;5.85;3.88;;;;;;;21.14;51.13;99980.22;5052452;28;20049;-51
2023/03/15 01:41:15;;;;;;;6.07;4.43;;;;;;;21.13;51.05;99975.84;5052501;28;20049;-50
2023/03/15 01:43:46;;;;;;;5.97;4.55;;;;;;;21.13;51.15;99975.84;5052015;28;20484;-56
2023/03/15 01:46:33;;;;;;;5.10;3.72;;;;;;;21.13;51.15;99978.53;5035827;28;20415;-54
2023/03/15 01:49:17;;;;;;;5.55;4.30;;;;;;;21.12;51.10;99983.09;5052160;28;20045;-55
2023/03/15 01:51:52;;;;;;;6.70;4.32;;;;;;;21.12;51.18;99987.63;5052157;28;20063;-53
2023/03/15 01:54:33;;;;;;;7.03;4.65;;;;;;;21.12;51.22;99982.25;5053352;28;20045;-48
2023/03/15 01:57:09;;;;;;;5.88;4.63;;;;;;;21.10;51.14;99985.09;5052302;28;20407;-51
2023/03/15 01:59:51;;;;;;;5.82;3.65;;;;;;;21.11;51.19;99988.66;5053380;28;20044;-51
2023/03/15 02:02:21;;;;;;;5.90;4.70;;;;;;;21.11;51.04;99994.03;5052331;28;20061;-51
2023/03/15 02:05:08;;;;;;;4.40;3.72;;;;;;;21.10;50.91;99995.84;5052290;28;20052;-50
2023/03/15 02:07:48;;;;;;;6.07;4.32;;;;;;;21.10;51.00;99986.94;5052067;28;20049;-51
2023/03/15 02:10:31;;;;;;;6.43;4.38;;;;;;;21.10;50.97;99987.78;5052239;28;20067;-51
2023/03/15 02:13:01;;;;;;;6.60;4.13;;;;;;;21.10;50.98;99986.94;5051984;28;20490;-49
2023/03/15 02:15:30;;;;;;;7.50;4.57;;;;;;;21.09;50.90;99987.94;5053736;28;20053;-51
2023/03/15 02:17:59;;;;;;;6.45;4.35;;;;;;;21.09;50.92;99996.88;5051868;28;20060;-48
2023/03/15 02:20:50;;;;;;;5.47;3.85;;;;;;;21.09;50.90;99990.66;5053078;28;20053;-48
2023/03/15 02:23:20;;;;;;;5.18;3.92;;;;;;;21.08;50.95;99991.66;5056439;28;20056;-47
2023/03/15 02:25:47;;;;;;;5.30;3.92;;;;;;;21.08;50.84;99999.72;5055560;28;20057;-54
2023/03/15 02:28:16;;;;;;;5.30;3.50;;;;;;;21.08;50.79;100002.41;5055747;28;20057;-53
2023/03/15 02:30:44;;;;;;;5.75;4.45;;;;;;;21.08;50.89;100010.50;5057146;28;20057;-53
2023/03/15 02:33:18;;;;;;;4.88;4.03;;;;;;;21.07;50.53;100009.66;5055424;28;20044;-54
2023/03/15 02:35:45;;;;;;;7.78;4.88;;;;;;;21.06;50.66;100017.88;5056681;28;20049;-52
2023/03/15 02:38:12;;;;;;;6.15;4.15;;;;;;;21.06;50.79;100013.34;5056315;28;20041;-54
2023/03/15 02:40:40;;;;;;;5.35;4.20;;;;;;;21.06;50.83;100013.34;5056417;28;20049;-54
2023/03/15 02:43:22;;;;;;;6.13;3.75;;;;;;;21.05;50.66;100024.28;5056597;28;20045;-55
2023/03/15 02:45:50;;;;;;;6.38;4.10;;;;;;;21.05;50.67;100018.88;5055651;28;20060;-48
2023/03/15 02:48:18;;;;;;;4.95;3.55;;;;;;;21.04;50.66;100028.81;5056516;28;20379;-49
2023/03/15 02:50:46;;;;;;;5.30;4.20;;;;;;;21.05;50.65;100035.03;5056449;28;20049;-51
2023/03/15 02:53:14;;;;;;;6.03;3.80;;;;;;;21.05;50.68;100027.81;5055466;28;20061;-50
2023/03/15 02:55:41;;;;;;;5.07;3.65;;;;;;;21.04;50.65;100033.34;5056618;28;20372;-50
2023/03/15 02:58:09;;;;;;;5.50;4.03;;;;;;;21.03;50.65;100037.91;5055344;28;20049;-49
2023/03/15 03:00:37;;;;;;;5.20;3.40;;;;;;;21.03;50.65;100034.38;5056349;28;20047;-52
2023/03/15 03:03:04;;;;;;;5.72;3.90;;;;;;;21.04;50.58;100036.88;5055178;28;20060;-50
2023/03/15 03:05:32;;;;;;;4.82;3.28;;;;;;;21.03;50.62;100037.91;5055157;28;20048;-54
2023/03/15 03:08:01;;;;;;;6.40;3.15;;;;;;;21.01;50.57;100034.50;5055022;28;20056;-53
2023/03/15 03:10:29;;;;;;;4.68;3.60;;;;;;;21.02;50.51;100040.72;5055136;28;20053;-51
2023/03/15 03:12:58;;;;;;;4.22;3.30;;;;;;;21.01;50.56;100044.44;5054833;28;20053;-49
2023/03/15 03:15:31;;;;;;;5.25;3.15;;;;;;;21.01;50.56;100053.34;5055400;28;20498;-51
2023/03/15 03:17:58;;;;;;;4.35;3.40;;;;;;;21.01;50.36;100055.19;5055993;28;20048;-51
2023/03/15 03:20:26;;;;;;;4.38;3.10;;;;;;;21.00;50.43;100059.75;5054698;28;20052;-49
2023/03/15 03:22:54;;;;;;;4.20;3.05;;;;;;;20.99;50.33;100052.69;5054607;28;20049;-52
2023/03/15 03:25:25;;;;;;;3.70;2.90;;;;;;;20.99;50.43;100058.06;5055871;28;20415;-51
2023/03/15 03:27:55;;;;;;;4.20;3.13;;;;;;;20.98;50.36;100068.00;5054863;28;20526;-50
2023/03/15 03:30:26;;;;;;;4.35;2.85;;;;;;;20.99;50.26;100074.22;5054832;28;20045;-50
2023/03/15 03:32:53;;;;;;;4.18;3.00;;;;;;;20.98;50.21;100067.13;5054995;28;20045;-48
2023/03/15 03:35:21;;;;;;;4.80;2.70;;;;;;;20.98;50.32;100075.19;5054628;28;20057;-49
2023/03/15 03:37:48;;;;;;;4.40;2.90;;;;;;;20.96;50.29;100071.84;5055033;28;20060;-50
2023/03/15 03:40:20;;;;;;;3.15;2.45;;;;;;;20.96;50.20;100072.66;5054215;28;20045;-49
2023/03/15 03:42:47;;;;;;;4.65;3.08;;;;;;;20.96;50.19;100079.91;5055591;28;20044;-49
2023/03/15 03:45:17;;;;;;;4.55;3.10;;;;;;;20.96;50.06;100074.53;5054415;28;20052;-47
2023/03/15 03:47:49;;;;;;;4.40;3.08;;;;;;;20.95;50.10;100073.69;5054404;28;20044;-48
2023/03/15 03:50:16;;;;;;;4.03;2.88;;;;;;;20.96;49.99;100082.59;5054209;28;20053;-50
2023/03/15 03:52:44;;;;;;;5.57;3.22;;;;;;;20.94;49.94;100077.38;5054330;28;20059;-48
2023/03/15 03:55:18;;;;;;;3.72;2.50;;;;;;;20.94;49.90;100080.06;5054264;28;20487;-51
2023/03/15 03:57:46;;;;;;;3.80;2.60;;;;;;;20.93;49.82;100070.28;5054314;28;20052;-48
2023/03/15 04:00:22;;;;;;;4.65;2.72;;;;;;;20.93;49.82;100056.84;5054284;28;20052;-49
2023/03/15 04:02:52;;;;;;;3.25;2.58;;;;;;;20.92;50.02;100060.53;5054027;28;20056;-48
2023/03/15 04:05:20;;;;;;;4.00;2.80;;;;;;;20.93;49.86;100069.47;5054195;28;20053;-49
2023/03/15 04:07:48;;;;;;;3.70;2.30;;;;;;;20.92;49.89;100094.69;5055090;28;20045;-50
2023/03/15 04:10:16;;;;;;;3.25;2.30;;;;;;;20.91;49.87;100090.31;5054017;28;20049;-51
2023/03/15 04:12:47;;;;;;;3.42;2.65;;;;;;;20.91;49.68;100093.84;5054066;28;20060;-48
2023/03/15 04:15:14;;;;;;;3.58;2.50;;;;;;;20.90;49.81;100100.25;5053877;28;20049;-54
2023/03/15 04:17:42;;;;;;;4.32;2.63;;;;;;;20.90;49.65;100094.84;5053571;28;20057;-53
2023/03/15 04:20:11;;;;;;;4.30;2.47;;;;;;;20.90;49.85;100092.16;5053761;28;20471;-52
2023/03/15 04:22:48;;;;;;;3.25;2.05;;;;;;;20.90;49.68;100102.06;5053803;28;20060;-52
2023/03/15 04:25:30;;;;;;;4.15;2.65;;;;;;;20.89;49.58;100100.38;5053449;28;20060;-51
2023/03/15 04:28:23;;;;;;;3.42;2.30;;;;;;;20.90;49.57;100102.06;5053782;28;20506;-48
2023/03/15 04:31:16;;;;;;;;;;;;;;;20.88;49.45;100118.38;5054134;28;20056;-51
2023/03/15 04:34:12;;;;;;;2.90;2.00;;;;;;;20.88;49.90;100120.22;5053540;28;19927;-53
2023/03/15 04:36:59;;;;;;;3.17;2.28;;;;;;;20.88;49.96;100117.53;5054206;28;20056;-52
2023/03/15 04:39:47;;;;;;;3.60;2.47;;;;;;;20.87;49.82;100115.84;5053520;28;20056;-54
2023/03/15 04:42:38;;;;;;;3.38;2.05;;;;;;;20.86;49.87;100112.28;5054270;28;20064;-53
2023/03/15 04:45:23;;;;;;;2.67;1.88;;;;;;;20.87;49.71;100105.09;5052707;28;20057;-52
2023/03/15 04:48:20;;;;;;;3.35;2.10;;;;;;;20.86;50.00;100108.75;5053267;28;20060;-50
2023/03/15 04:51:06;;;;;;;3.38;2.25;;;;;;;20.86;49.91;100106.06;5061363;28;20056;-52
2023/03/15 04:53:53;;;;;;;3.53;2.20;;;;;;;20.86;50.06;100103.38;5054224;28;20048;-49
2023/03/15 04:56:43;;;;;;;6.05;2.67;;;;;;;20.85;50.00;100116.00;5053465;28;20064;-48
2023/03/15 04:59:31;;;;;;;3.45;2.20;;;;;;;20.85;49.99;100110.59;5052967;28;20056;-51
2023/03/15 05:02:27;;;;;;;3.55;2.72;;;;;;;20.85;49.73;100107.09;5052860;28;20064;-48
2023/03/15 05:05:23;;;;;;;2.90;1.95;;;;;;;20.84;49.39;100113.47;5052922;28;20510;-48
2023/03/15 05:08:14;;;;;;;4.20;2.40;;;;;;;20.83;49.91;100123.41;5053836;28;20059;-48
2023/03/15 05:11:20;;;;;;;3.53;2.10;;;;;;;20.84;49.82;100124.22;5053903;28;20510;-49
2023/03/15 05:14:11;;;;;;;4.85;2.00;;;;;;;20.84;49.96;100126.94;5053352;28;20049;-53
2023/03/15 05:17:08;;;;;;;4.13;2.88;;;;;;;20.82;49.44;100126.22;5054452;28;20056;-51
2023/03/15 05:20:06;;;;;;;3.72;2.28;;;;;;;20.82;49.52;100119.00;5053067;28;20407;-53
2023/03/15 05:23:00;;;;;;;4.43;2.47;;;;;;;20.82;49.31;100112.78;5053107;28;20053;-50
2023/03/15 05:25:54;;;;;;;3.58;2.38;;;;;;;20.80;49.03;100121.00;5053483;28;20056;-48
2023/03/15 05:28:44;;;;;;;6.10;2.50;;;;;;;20.80;49.11;100129.09;5052711;28;20060;-47
2023/03/15 05:31:35;;;;;;;4.60;2.22;;;;;;;20.79;49.08;100138.16;5060492;28;20376;-49
2023/03/15 05:34:31;;;;;;;3.90;1.98;;;;;;;20.79;49.15;100129.25;5053529;28;20049;-48
2023/03/15 05:37:24;;;;;;;2.60;1.80;;;;;;;20.78;48.97;100132.91;5052633;28;20495;-50
2023/03/15 05:39:54;;;;;;;6.65;3.33;;;;;;;20.78;48.98;100141.84;5053217;28;20041;-52
2023/03/15 05:42:40;;;;;;;3.40;2.10;;;;;;;20.78;49.12;100154.44;5060155;28;20060;-48
2023/03/15 05:45:22;;;;;;;2.95;2.30;;;;;;;20.76;48.99;100151.09;5060041;28;20049;-49
2023/03/15 05:48:21;;;;;;;3.67;2.30;;;;;;;20.76;48.96;100157.31;5052919;28;20052;-49
2023/03/15 05:51:19;;;;;;;3.42;2.25;;;;;;;20.76;48.83;100167.22;5053164;28;20049;-51
2023/03/15 05:54:12;;;;;;;3.45;2.28;;;;;;;20.74;48.58;100167.34;5060474;28;20045;-48
2023/03/15 05:57:12;;;;;;;5.25;2.25;;;;;;;20.73;48.74;100165.69;5056872;28;20060;-49
2023/03/15 06:00:04;;;;;;;3.38;2.17;;;;;;;20.72;48.47;100172.91;5056848;28;20063;-50
2023/03/15 06:02:42;;;;;;;4.78;2.08;;;;;;;20.73;48.50;100177.28;5064463;28;20049;-47
2023/03/15 06:05:36;;;;;;;3.95;2.05;;;;;;;20.73;48.45;100184.50;5057245;28;20056;-49
2023/03/15 06:08:06;;;;;;;4.60;2.25;;;;;;;20.72;48.56;100183.66;5056011;28;20529;-47
2023/03/15 06:10:38;;;;;;;3.47;2.22;;;;;;;20.72;48.39;100196.28;5056292;28;20060;-47
2023/03/15 06:13:08;;;;;;;3.60;2.20;;;;;;;20.70;48.45;100193.75;5055903;28;20405;-49
2023/03/15 06:15:35;;;;;;;4.00;1.90;;;;;;;20.71;48.40;100195.44;5057213;28;20048;-50
2023/03/15 06:18:04;;;;;;;3.63;2.08;;;;;;;20.70;48.11;100204.50;5055850;28;20471;-48
2023/03/15 06:20:32;;;;;;;3.50;1.95;;;;;;;20.69;48.13;100205.50;5055954;28;20056;-49
2023/03/15 06:23:06;;;;;;;3.35;2.22;;;;;;;20.70;47.99;100209.88;5055612;28;20403;-49
2023/03/15 06:25:41;;;;;;;4.28;1.80;;;;;;;20.70;47.79;100211.72;5055993;28;20068;-54
2023/03/15 06:28:08;;;;;;;2.58;1.58;;;;;;;20.69;47.62;100227.00;5056868;28;20371;-53
2023/03/15 06:30:39;;;;;;;2.90;1.88;;;;;;;20.70;47.65;100223.34;5055927;28;20045;-54
2023/03/15 06:33:07;;;;;;;3.15;1.52;;;;;;;20.70;47.35;100233.22;5055965;28;20064;-53
2023/03/15 06:35:35;;;;;;;3.47;1.92;;;;;;;20.69;47.47;100232.38;5055956;28;20415;-55
2023/03/15 06:38:03;;;;;;;4.28;1.63;;;;;;;20.69;47.21;100234.22;5055350;28;20053;-51
2023/03/15 06:40:31;;;;;;;4.72;2.17;;;;;;;20.68;46.97;100236.09;5056822;28;20049;-54
2023/03/15 06:43:04;;;;;;;2.78;1.50;;;;;;;20.68;47.08;100233.41;5055374;28;20044;-54
2023/03/15 06:45:32;;;;;;;2.70;1.30;;;;;;;20.68;47.24;100240.63;5055702;28;20049;-55
2023/03/15 06:48:00;;;;;;;3.38;1.45;;;;;;;20.67;46.90;100250.53;5055608;28;20055;-53
2023/03/15 06:50:27;;;;;;;3.45;1.42;;;;;;;20.68;46.92;100251.38;5055537;28;20064;-55
2023/03/15 06:53:10;;;;;;;2.58;1.30;;;;;;;20.67;45.92;100253.22;5056536;28;20040;-50
2023/03/15 06:55:37;;;;;;;2.40;1.45;;;;;;;20.67;45.79;100255.06;5055477;28;20057;-52
2023/03/15 06:58:04;;;;;;;3.95;1.67;;;;;;;20.67;45.76;100258.59;5056131;28;20052;-48
2023/03/15 07:00:32;;;;;;;2.35;1.50;;;;;;;20.67;45.46;100261.31;5056165;28;20041;-48
2023/03/15 07:02:59;;;;;;;2.75;1.42;;;;;;;20.67;45.53;100266.69;5056171;28;20049;-50
2023/03/15 07:05:27;;;;;;;2.42;1.10;;;;;;;20.68;44.80;100262.13;5056111;28;20045;-53
2023/03/15 07:07:54;;;;;;;3.13;1.75;;;;;;;20.68;44.18;100275.59;5055006;28;20049;-50
2023/03/15 07:10:21;;;;;;;1.92;0.90;;;;;;;20.67;44.07;100268.53;5056166;28;20475;-53
2023/03/15 07:12:53;;;;;;;2.90;1.40;;;;;;;20.66;44.80;100270.38;5056036;28;20048;-55
2023/03/15 07:15:24;;;;;;;4.55;1.45;;;;;;;20.66;43.88;100265.00;5056423;28;20495;-51
2023/03/15 07:17:51;;;;;;;5.43;1.77;;;;;;;20.67;43.37;100268.53;5056132;28;20044;-49
2023/03/15 07:20:18;;;;;;;10.40;2.55;;;;;;;20.67;43.97;100268.53;5055800;28;20048;-48
2023/03/15 07:22:46;;;;;;;7.85;1.83;;;;;;;20.67;44.00;100277.44;5055938;28;20403;-49
2023/03/15 07:25:13;;;;;;;3.15;1.35;;;;;;;20.66;43.93;100282.94;5055645;28;20396;-51
2023/03/15 07:27:40;;;;;;;4.55;1.30;;;;;;;20.66;43.04;100278.44;5055842;28;20041;-49
2023/03/15 07:30:09;;;;;;;2.95;1.08;;;;;;;20.66;43.39;100280.25;5055653;28;20411;-49
2023/03/15 07:32:37;;;;;;;7.00;1.33;;;;;;;20.66;44.13;100283.81;5055605;28;20483;-49
2023/03/15 07:35:05;;;;;;;6.78;1.30;;;;;;;20.66;42.74;100291.88;5055690;28;20045;-56
2023/03/15 07:37:32;;;;;;;2.53;1.20;;;;;;;20.65;41.47;100303.63;5055426;28;20048;-55
2023/03/15 07:40:08;;;;;;;6.28;1.25;;;;;;;20.65;43.19;100298.25;5055342;28;20399;-56
2023/03/15 07:42:36;;;;;;;6.18;1.60;;;;;;;20.66;43.02;100301.78;5055348;28;20399;-52
2023/03/15 07:45:05;;;;;;;3.30;1.10;;;;;;;20.66;42.81;100291.88;5055486;28;20045;-52
2023/03/15 07:47:32;;;;;;;2.90;1.00;;;;;;;20.66;42.10;100297.28;5055482;28;20052;-51
2023/03/15 07:49:59;;;;;;;4.22;1.08;;;;;;;20.66;42.95;100296.41;5055315;28;20395;-51
2023/03/15 07:52:26;;;;;;;5.97;1.33;;;;;;;20.66;43.12;100302.66;5055368;28;20477;-49
2023/03/15 07:54:54;;;;;;;1.98;1.02;;;;;;;20.66;43.11;100305.34;5055151;28;20049;-55
2023/03/15 07:57:21;;;;;;;5.38;1.52;;;;;;;20.65;43.27;100309.00;5055257;28;20049;-54
2023/03/15 07:59:48;;;;;;;3.13;1.00;;;;;;;20.66;43.38;100323.28;5055261;28;20045;-55
2023/03/15 08:02:15;;;;;;;4.55;1.27;;;;;;;20.65;44.29;100322.44;5055237;28;20052;-53
2023/03/15 08:04:43;;;;;;;3.47;1.27;;;;;;;20.66;42.89;100313.41;5054929;28;20071;-52
2023/03/15 08:07:11;;;;;;;4.10;1.00;;;;;;;20.67;42.97;100322.31;5065669;28;20432;-52
2023/03/15 08:09:38;;;;;;;5.35;1.00;;;;;;;20.68;42.99;100324.00;5074583;28;20062;-52
2023/03/15 08:12:06;;;;;;;4.75;1.10;;;;;;;20.70;43.27;100324.69;5074342;28;20044;-53
2023/03/15 08:14:33;;;;;;;4.57;1.17;;;;;;;20.68;41.66;100335.59;5074696;28;20102;-54
2023/03/15 08:17:00;;;;;;;3.35;1.00;;;;;;;20.69;40.72;100334.59;5074266;28;20051;-56
2023/03/15 08:19:28;;;;;;;4.07;1.00;;;;;;;20.68;40.98;100334.75;5074441;28;20059;-56
2023/03/15 08:21:55;;;;;;;2.22;0.73;;;;;;;20.67;41.20;100336.59;5074294;28;20045;-55
2023/03/15 08:24:22;;;;;;;1.45;0.80;;;;;;;20.67;39.89;100342.00;5074236;28;20053;-55
2023/03/15 08:26:50;;;;;;;3.65;0.80;;;;;;;20.66;39.60;100334.06;5074223;28;20048;-56
2023/03/15 08:29:17;;;;;;;2.42;0.93;;;;;;;20.65;39.21;100335.06;5074266;28;20053;-55
2023/03/15 08:31:44;;;;;;;1.60;0.60;;;;;;;20.65;39.57;100341.28;5074293;28;20396;-55
2023/03/15 08:34:12;;;;;;;3.65;1.13;;;;;;;20.66;40.21;100347.50;5074151;28;20049;-55
2023/03/15 08:36:40;;;;;;;4.05;1.10;;;;;;;20.67;40.74;100346.53;5073982;28;20367;-52
2023/03/15 08:39:08;;;;;;;2.30;0.90;;;;;;;20.67;40.35;100350.06;5073954;28;20055;-55
2023/03/15 08:41:35;;;;;;;2.17;0.60;;;;;;;20.67;40.53;100344.69;5074199;28;20383;-52
2023/03/15 08:44:02;;;;;;;2.55;0.80;;;;;;;20.66;40.12;100353.75;5073986;28;20048;-56
2023/03/15 08:46:31;;;;;;;2.28;0.90;;;;;;;20.67;40.22;100363.50;5073836;28;20044;-55
2023/03/15 08:48:59;;;;;;;3.50;0.88;;;;;;;20.68;38.81;100367.88;5073745;28;20075;-55
2023/03/15 08:51:28;;;;;;;3.17;0.90;;;;;;;20.67;38.94;100370.72;5073711;28;20055;-58
2023/03/15 08:53:55;;;;;;;2.45;0.60;;;;;;;20.67;38.17;100378.81;5072846;28;20055;-58
2023/03/15 08:56:23;;;;;;;3.13;0.60;;;;;;;20.66;37.63;100379.78;5073811;28;20402;-59
2023/03/15 08:58:50;;;;;;;1.75;0.40;;;;;;;20.64;36.54;100388.00;5073859;28;20067;-58
2023/03/15 09:01:17;;;;;;;3.47;0.98;;;;;;;20.63;35.74;100399.78;5073715;28;20044;-58
2023/03/15 09:03:45;;;;;;;2.35;0.80;;;;;;;20.62;35.50;100403.47;5073776;28;20055;-57
2023/03/15 09:06:13;;;;;;;3.90;0.60;;;;;;;20.60;34.22;100410.81;5073452;28;20052;-56
2023/03/15 09:08:40;;;;;;;1.77;0.40;;;;;;;20.59;34.46;100419.06;5073337;28;20047;-56
2023/03/15 09:11:08;;;;;;;1.48;0.47;;;;;;;20.59;35.23;100419.91;5073539;28;20044;-55
2023/03/15 09:13:35;;;;;;;2.53;0.60;;;;;;;20.59;34.41;100422.59;5073509;28;20056;-48
2023/03/15 09:16:02;;;;;;;1.95;0.52;;;;;;;20.60;35.91;100435.03;5073575;28;20053;-52
2023/03/15 09:18:30;;;;;;;3.65;0.70;;;;;;;20.59;35.42;100429.81;5073344;28;20049;-51
2023/03/15 09:20:57;;;;;;;1.38;0.52;;;;;;;20.59;36.72;100433.34;5073569;28;20051;-52
2023/03/15 09:23:25;;;;;;;2.17;0.50;;;;;;;20.58;37.03;100437.03;5073365;28;20044;-55
2023/03/15 09:25:52;;;;;;;4.13;0.80;;;;;;;20.59;37.07;100444.09;5073245;28;20053;-51
2023/03/15 09:28:19;;;;;;;1.17;0.38;;;;;;;20.60;37.18;100453.84;5071855;28;20533;-48
2023/03/15 09:30:46;;;;;;;1.35;0.35;;;;;;;20.61;37.15;100454.69;5072544;28;20048;-48
2023/03/15 09:33:14;;;;;;;1.20;0.40;;;;;;;20.62;37.32;100459.06;5073450;28;20067;-52
2023/03/15 09:35:41;;;;;;;1.88;0.73;;;;;;;20.62;37.47;100457.25;5073435;28;20053;-54
2023/03/15 09:38:09;;;;;;;1.25;0.40;;;;;;;20.63;37.38;100456.25;5073240;28;20048;-54
2023/03/15 09:40:44;;;;;;;2.33;0.60;;;;;;;20.64;37.52;100459.78;5073279;28;20051;-53
2023/03/15 09:43:31;;;;;;;1.67;0.75;;;;;;;20.64;37.65;100471.38;5073411;28;20475;-52
2023/03/15 09:46:09;;;;;;;2.05;0.68;;;;;;;20.63;37.81;100472.38;5073177;28;20063;-53
2023/03/15 09:48:58;;;;;;;1.58;0.60;;;;;;;20.65;38.18;100474.91;5073290;28;20458;-48
2023/03/15 09:51:37;;;;;;;2.00;0.43;;;;;;;20.65;38.09;100472.22;5073275;28;20041;-48
2023/03/15 09:54:15;;;;;;;2.40;0.47;;;;;;;20.65;38.25;100485.69;5073052;28;20055;-50
2023/03/15 09:56:55;;;;;;;0.77;0.32;;;;;;;20.65;38.37;100491.91;5073166;28;20048;-49
2023/03/15 09:59:31;;;;;;;2.17;0.50;;;;;;;20.66;38.50;100498.13;5073027;28;20052;-48
2023/03/15 10:02:07;;;;;;;0.90;0.38;;;;;;;20.66;38.41;100492.75;5073037;28;20048;-48
2023/03/15 10:04:39;;;;;;;1.38;0.30;;;;;;;20.66;38.55;100498.13;5073256;28;20055;-53
2023/03/15 10:07:13;;;;;;;1.95;0.50;;;;;;;20.66;38.57;100499.00;5073138;28;20053;-50
2023/03/15 10:09:41;;;;;;;1.10;0.40;;;;;;;20.65;38.53;100497.28;5073225;28;20402;-50
2023/03/15 10:12:14;;;;;;;1.17;0.55;;;;;;;20.67;38.79;100499.84;5071808;28;20048;-55
2023/03/15 10:14:56;;;;;;;1.85;0.57;;;;;;;20.66;38.76;100498.13;5073115;28;20107;-54
2023/03/15 10:17:34;;;;;;;1.63;0.60;;;;;;;20.65;38.84;100508.03;5072266;28;20063;-53
2023/03/15 10:20:25;;;;;;;2.53;0.50;;;;;;;20.64;38.97;100500.97;5072936;28;20045;-54
2023/03/15 10:23:17;;;;;;;3.13;0.63;;;;;;;20.65;39.24;100510.72;5072921;28;20048;-52
2023/03/15 10:25:48;;;;;;;1.00;0.37;;;;;;;20.66;38.98;100511.56;5072914;28;20051;-48
2023/03/15 10:28:18;;;;;;;2.33;0.77;;;;;;;20.66;39.17;100525.03;5072592;28;20066;-49
2023/03/15 10:30:48;;;;;;;2.78;0.68;;;;;;;20.65;39.28;100537.63;5071143;28;20044;-48
2023/03/15 10:33:35;;;;;;;3.88;0.73;;;;;;;20.65;39.32;100542.16;5072135;28;20475;-50
2023/03/15 10:36:20;;;;;;;2.58;0.60;;;;;;;20.65;39.45;100550.22;5072352;28;20052;-53
2023/03/15 10:38:49;;;;;;;1.13;0.50;;;;;;;20.64;39.37;100562.00;5072273;28;20044;-52
2023/03/15 10:41:41;;;;;;;1.73;0.60;;;;;;;20.63;39.46;100558.47;5073175;28;20482;-51
2023/03/15 10:44:19;;;;;;;2.10;0.90;;;;;;;20.62;40.00;100564.84;5076140;28;20059;-47
2023/03/15 10:47:00;;;;;;;2.47;1.00;;;;;;;20.63;40.12;100571.91;5075372;28;20045;-48
2023/03/15 10:49:40;;;;;;;2.58;0.80;;;;;;;20.64;40.48;100578.13;5076393;28;20040;-48
2023/03/15 10:52:26;;;;;;;2.15;1.00;;;;;;;20.63;40.24;100574.59;5076270;28;20051;-47
2023/03/15 10:54:53;;;;;;;3.47;1.38;;;;;;;20.63;39.94;100585.34;5076262;28;20041;-54
2023/03/15 10:57:34;;;;;;;2.85;1.98;;;;;;;20.62;39.99;100597.13;5076318;28;20510;-55
2023/03/15 11:00:08;;;;;;;4.80;2.35;;;;;;;20.61;40.20;100598.09;5075897;28;20049;-54
2023/03/15 11:02:36;;;;;;;2.97;1.73;;;;;;;20.61;40.34;100597.25;5075738;28;20048;-53
2023/03/15 11:05:14;;;;;;;2.97;1.40;;;;;;;20.60;40.37;100592.88;5075812;28;20400;-51
2023/03/15 11:08:02;;;;;;;3.13;1.63;;;;;;;20.59;40.46;100588.50;5076202;28;20064;-55
2023/03/15 11:10:33;;;;;;;4.50;1.80;;;;;;;20.60;40.07;100593.72;5075232;28;20067;-55
2023/03/15 11:13:11;;;;;;;3.58;2.22;;;;;;;20.59;39.78;100593.88;5075546;28;20036;-52
2023/03/15 11:15:45;;;;;;;3.25;1.98;;;;;;;20.59;40.10;100599.25;5075794;28;20044;-55
2023/03/15 11:18:24;;;;;;;2.70;1.63;;;;;;;20.58;40.13;100587.66;5075859;28;20048;-55
2023/03/15 11:20:55;;;;;;;3.90;1.35;;;;;;;20.58;40.10;100593.03;5075794;28;20514;-55
2023/03/15 11:23:27;;;;;;;4.32;2.10;;;;;;;20.58;40.07;100598.41;5075878;28;20109;-54
2023/03/15 11:25:55;;;;;;;3.55;1.83;;;;;;;20.57;39.81;100591.31;5076347;28;20432;-54
2023/03/15 11:28:27;;;;;;;5.55;2.15;;;;;;;20.57;39.38;100588.63;5075737;28;20051;-53
2023/03/15 11:30:59;;;;;;;3.63;2.20;;;;;;;20.57;39.19;100591.31;5075597;28;20495;-53
2023/03/15 11:33:47;;;;;;;3.63;2.40;;;;;;;20.57;39.04;100587.78;5075532;28;20040;-55
2023/03/15 11:36:18;;;;;;;4.00;2.10;;;;;;;20.56;38.84;100578.00;5075763;28;20265;-49
2023/03/15 11:38:46;;;;;;;4.60;1.73;;;;;;;20.56;38.87;100588.78;5075707;28;20055;-49
2023/03/15 11:41:28;;;;;;;4.85;2.08;;;;;;;20.55;38.68;100584.41;5075579;28;20047;-48
2023/03/15 11:44:09;;;;;;;4.25;2.15;;;;;;;20.55;38.37;100587.94;5075731;28;20059;-54
2023/03/15 11:46:45;;;;;;;3.42;1.83;;;;;;;20.54;38.42;100602.38;5075385;28;20053;-53
2023/03/15 11:49:28;;;;;;;3.95;1.75;;;;;;;20.54;38.42;100605.06;5075099;28;20044;-54
2023/03/15 11:51:56;;;;;;;;;;;;;;;20.53;38.35;100592.59;5075729;28;20048;-54
2023/03/15 11:54:27;;;;;;;3.58;1.73;;;;;;;20.53;38.17;100591.75;5074629;28;19920;-54
2023/03/15 11:57:01;;;;;;;4.80;1.80;;;;;;;20.53;38.29;100591.75;5074505;28;20045;-53